CYQL

Lethbridge County Airport

Lethbridge, Alberta, Canada
METAR CYQL 200600Z AUTO 23011KT 9SM CLR M27/M32 A3000 RMK SLP264
Observed Flight Rules
Feb-20 @ 06:00 UTC (an hour ago) Visual Flight Rules
Wind Visibility Clouds
230° at 11 knots 9 miles
  • Clear skies
Temperatures Readings
Current -27°C / -17°F
Dewpoint -32°C / -26°F
Humidity 63%
Altimeter 30" Hg
Pressure 1026.4 hPa
Elevation 929
METAR CYQL 200600Z AUTO 23011KT 9SM CLR M27/M32 A3000 RMK SLP264
Observed Flight Rules
Feb-20 @ 06:00 UTC
(an hour ago)
VFR
Wind Visibility
230° at 11 knots 9 miles
Clouds
  • Clear skies
Temperature Dewpoint
-27°C / -17°F -32°C / -26°F
Humidity Altimeter Pressure
63% 30" Hg 1026.4 hPa